Time;durP1;ratioP1;P1;durP2;ratioP2;P2;SDS_P1;SDS_P2;PMS_P1;PMS_P2;Temp;Humidity;BMP_temperature;BMP_pressure;BME280_temperature;BME280_humidity;BME280_pressure;Samples;Min_cycle;Max_cycle;Signal;HPM_P1;HPM_P2
2024/01/05 00:02:09;;;;;;;11.20;2.75;;;;;;;;;;5005665;28;20038;-80
2024/01/05 00:04:34;;;;;;;8.77;2.88;;;;;;;;;;5008560;28;20030;-80
2024/01/05 00:07:00;;;;;;;10.48;3.08;;;;;;;;;;5008175;28;20128;-79
2024/01/05 00:09:25;;;;;;;8.20;2.50;;;;;;;;;;5009689;28;20026;-80
2024/01/05 00:11:51;;;;;;;9.73;2.83;;;;;;;;;;4990796;28;20069;-80
2024/01/05 00:14:17;;;;;;;9.40;3.00;;;;;;;;;;5021620;28;20436;-80
2024/01/05 00:16:43;;;;;;;10.55;3.42;;;;;;;;;;5025507;28;20396;-80
2024/01/05 00:19:09;;;;;;;9.18;2.90;;;;;;;;;;5008337;28;20021;-80
2024/01/05 00:21:34;;;;;;;14.05;2.85;;;;;;;;;;5004507;28;20045;-80
2024/01/05 00:24:00;;;;;;;8.35;2.78;;;;;;;;;;5009797;28;20476;-79
2024/01/05 00:26:25;;;;;;;9.00;2.92;;;;;;;;;;5007921;28;20531;-79
2024/01/05 00:28:51;;;;;;;9.25;2.90;;;;;;;;;;5008665;28;20040;-80
2024/01/05 00:31:16;;;;;;;8.60;2.72;;;;;;;;;;5006346;28;20042;-79
2024/01/05 00:33:45;;;;;;;8.18;2.60;;;;;;;;;;5008580;28;20124;-79
2024/01/05 00:36:11;;;;;;;11.90;2.85;;;;;;;;;;5007371;28;20387;-79
2024/01/05 00:38:37;;;;;;;12.55;2.63;;;;;;;;;;5007338;28;20044;-81
2024/01/05 00:41:04;;;;;;;11.70;2.50;;;;;;;;;;5009038;28;20026;-79
2024/01/05 00:43:29;;;;;;;9.60;2.80;;;;;;;;;;5011554;28;20022;-79
2024/01/05 00:45:55;;;;;;;12.30;2.83;;;;;;;;;;5007214;28;20034;-79
2024/01/05 00:48:21;;;;;;;9.68;2.33;;;;;;;;;;5006801;28;20246;-79
2024/01/05 00:50:46;;;;;;;9.13;2.70;;;;;;;;;;5004186;28;20060;-79
2024/01/05 00:53:12;;;;;;;11.52;2.92;;;;;;;;;;5005816;28;20023;-80
2024/01/05 00:55:37;;;;;;;8.27;2.55;;;;;;;;;;5005059;28;20031;-80
2024/01/05 00:58:03;;;;;;;10.13;2.58;;;;;;;;;;5026412;28;20120;-80
2024/01/05 01:00:29;;;;;;;11.95;2.50;;;;;;;;;;5008140;28;20491;-80
2024/01/05 01:02:56;;;;;;;8.65;2.30;;;;;;;;;;5006349;28;20026;-80
2024/01/05 01:05:21;;;;;;;8.60;2.25;;;;;;;;;;5003214;28;20730;-80
2024/01/05 01:07:47;;;;;;;9.88;2.45;;;;;;;;;;5007731;28;20121;-79
2024/01/05 01:10:12;;;;;;;7.85;1.90;;;;;;;;;;5006787;28;20113;-78
2024/01/05 01:12:38;;;;;;;10.52;2.22;;;;;;;;;;5001478;28;20061;-78
2024/01/05 01:15:04;;;;;;;11.05;2.75;;;;;;;;;;5006510;28;20030;-79
2024/01/05 01:17:30;;;;;;;8.48;1.90;;;;;;;;;;5009824;28;20022;-79
2024/01/05 01:19:56;;;;;;;12.18;3.08;;;;;;;;;;5011165;28;20029;-79
2024/01/05 01:22:21;;;;;;;6.95;2.05;;;;;;;;;;5008430;28;20038;-79
2024/01/05 01:24:47;;;;;;;8.40;2.13;;;;;;;;;;5003705;28;20030;-79
2024/01/05 01:27:13;;;;;;;9.10;2.20;;;;;;;;;;5008150;28;20109;-79
2024/01/05 01:29:39;;;;;;;10.75;2.50;;;;;;;;;;5009209;28;20145;-80
2024/01/05 01:32:04;;;;;;;9.35;2.00;;;;;;;;;;5007527;28;20489;-79
2024/01/05 01:34:30;;;;;;;9.20;2.03;;;;;;;;;;5011071;28;20037;-79
2024/01/05 01:36:55;;;;;;;8.00;2.25;;;;;;;;;;5012910;28;20109;-79
2024/01/05 01:39:20;;;;;;;9.23;2.10;;;;;;;;;;5006541;28;20626;-79
2024/01/05 01:41:46;;;;;;;9.60;1.95;;;;;;;;;;5009718;28;20112;-79
2024/01/05 01:44:12;;;;;;;7.13;1.50;;;;;;;;;;5009110;28;20507;-79
2024/01/05 01:46:39;;;;;;;9.98;2.00;;;;;;;;;;5007548;28;20037;-79
2024/01/05 01:49:05;;;;;;;12.65;2.00;;;;;;;;;;5005433;28;20025;-79
2024/01/05 01:51:34;;;;;;;11.00;1.83;;;;;;;;;;5006170;28;20022;-79
2024/01/05 01:54:04;;;;;;;9.15;1.70;;;;;;;;;;5009602;28;20026;-79
2024/01/05 01:56:31;;;;;;;6.55;2.03;;;;;;;;;;5028133;28;20235;-79
2024/01/05 01:58:56;;;;;;;9.93;2.03;;;;;;;;;;5020044;28;20025;-79
2024/01/05 02:01:22;;;;;;;11.73;2.20;;;;;;;;;;5005767;28;20033;-89
2024/01/05 02:03:47;;;;;;;7.55;1.90;;;;;;;;;;5024793;23;20080;-82
2024/01/05 02:06:13;;;;;;;7.30;1.92;;;;;;;;;;5010516;28;20439;-80
2024/01/05 02:08:43;;;;;;;7.72;1.92;;;;;;;;;;5010913;28;20105;-80
2024/01/05 02:11:08;;;;;;;10.18;1.92;;;;;;;;;;5027837;28;20022;-80
2024/01/05 02:13:34;;;;;;;13.57;2.47;;;;;;;;;;5010651;28;20404;-80
2024/01/05 02:15:59;;;;;;;6.35;1.63;;;;;;;;;;5007994;28;20052;-80
2024/01/05 02:18:25;;;;;;;10.18;1.80;;;;;;;;;;5009488;28;20037;-80
2024/01/05 02:20:50;;;;;;;9.20;2.08;;;;;;;;;;5009362;28;20022;-80
2024/01/05 02:23:26;;;;;;;10.73;1.67;;;;;;;;;;5011848;28;20432;-80
2024/01/05 02:25:55;;;;;;;8.48;1.90;;;;;;;;;;5005451;28;20026;-80
2024/01/05 02:28:24;;;;;;;4.78;1.60;;;;;;;;;;5011023;28;20302;-80
2024/01/05 02:30:49;;;;;;;7.85;1.70;;;;;;;;;;5007293;28;20033;-80
2024/01/05 02:33:15;;;;;;;10.65;1.92;;;;;;;;;;5018157;28;20049;-80
2024/01/05 02:35:41;;;;;;;6.88;1.45;;;;;;;;;;5018068;28;20026;-80
2024/01/05 02:38:07;;;;;;;5.78;1.55;;;;;;;;;;5015268;28;20385;-80
2024/01/05 02:40:33;;;;;;;8.10;1.70;;;;;;;;;;4994240;28;20484;-80
2024/01/05 02:42:58;;;;;;;9.13;1.85;;;;;;;;;;4997321;28;20034;-80
2024/01/05 02:45:24;;;;;;;9.07;2.00;;;;;;;;;;4991981;28;20030;-80
2024/01/05 02:47:53;;;;;;;9.73;1.92;;;;;;;;;;4996990;28;20436;-80
2024/01/05 02:50:19;;;;;;;8.20;1.65;;;;;;;;;;4994475;28;20077;-80
2024/01/05 02:52:45;;;;;;;7.15;1.67;;;;;;;;;;4992161;28;20038;-80
2024/01/05 02:55:11;;;;;;;8.68;2.10;;;;;;;;;;4991538;28;20045;-80
2024/01/05 02:57:37;;;;;;;7.97;2.20;;;;;;;;;;4988281;28;20026;-80
2024/01/05 03:00:04;;;;;;;7.10;1.60;;;;;;;;;;4992512;28;20026;-80
2024/01/05 03:02:29;;;;;;;8.77;1.50;;;;;;;;;;4993002;28;20037;-80
2024/01/05 03:04:55;;;;;;;6.20;1.70;;;;;;;;;;4994303;28;20030;-80
2024/01/05 03:07:21;;;;;;;5.07;1.35;;;;;;;;;;4990163;28;20026;-80
2024/01/05 03:09:46;;;;;;;5.60;1.70;;;;;;;;;;4996061;28;20373;-81
2024/01/05 03:12:14;;;;;;;7.95;2.10;;;;;;;;;;4992512;28;20393;-81
2024/01/05 03:14:41;;;;;;;7.35;1.50;;;;;;;;;;5006791;28;20022;-81
2024/01/05 03:17:07;;;;;;;7.13;1.40;;;;;;;;;;4999055;28;20122;-81
2024/01/05 03:19:33;;;;;;;4.10;1.40;;;;;;;;;;4992259;28;20358;-82
2024/01/05 03:21:59;;;;;;;6.13;1.50;;;;;;;;;;4995058;28;20034;-81
2024/01/05 03:24:25;;;;;;;6.40;1.75;;;;;;;;;;4993152;28;20030;-81
2024/01/05 03:26:51;;;;;;;8.27;1.67;;;;;;;;;;4985733;28;20053;-81
2024/01/05 03:29:21;;;;;;;6.20;1.30;;;;;;;;;;4990966;28;20045;-81
2024/01/05 03:31:47;;;;;;;8.77;1.65;;;;;;;;;;4991315;28;20486;-81
2024/01/05 03:34:13;;;;;;;7.93;2.03;;;;;;;;;;4991533;28;20528;-81
2024/01/05 03:36:42;;;;;;;6.50;1.60;;;;;;;;;;4998766;28;20062;-81
2024/01/05 03:39:08;;;;;;;4.82;1.25;;;;;;;;;;4994956;28;20027;-81
2024/01/05 03:41:34;;;;;;;6.38;1.60;;;;;;;;;;4990952;28;20030;-81
2024/01/05 03:44:01;;;;;;;4.78;1.30;;;;;;;;;;5004933;28;20412;-81
2024/01/05 03:46:28;;;;;;;6.90;1.38;;;;;;;;;;4990644;28;20392;-81
2024/01/05 03:48:53;;;;;;;4.50;1.30;;;;;;;;;;4991087;28;20029;-81
2024/01/05 03:51:21;;;;;;;8.05;1.50;;;;;;;;;;4990562;28;20026;-81
2024/01/05 03:53:48;;;;;;;4.45;1.50;;;;;;;;;;4989843;28;20083;-81
2024/01/05 03:56:17;;;;;;;8.23;1.67;;;;;;;;;;4987908;28;20040;-81
2024/01/05 03:58:42;;;;;;;4.75;1.45;;;;;;;;;;4990854;28;20034;-81
2024/01/05 04:01:11;;;;;;;6.55;1.60;;;;;;;;;;4989882;28;20026;-81
2024/01/05 04:03:36;;;;;;;5.65;1.55;;;;;;;;;;4990118;28;20030;-81
2024/01/05 04:06:03;;;;;;;8.13;1.70;;;;;;;;;;4990180;28;20033;-81
2024/01/05 04:08:31;;;;;;;6.72;1.30;;;;;;;;;;4985707;28;20097;-81
2024/01/05 04:10:57;;;;;;;8.38;1.70;;;;;;;;;;4990885;28;20028;-81
2024/01/05 04:13:22;;;;;;;9.07;2.08;;;;;;;;;;4990416;28;20041;-81
2024/01/05 04:15:47;;;;;;;6.25;1.80;;;;;;;;;;4989731;28;20037;-81
2024/01/05 04:18:13;;;;;;;7.38;1.77;;;;;;;;;;4990530;28;20424;-80
2024/01/05 04:20:40;;;;;;;5.82;1.75;;;;;;;;;;4995186;28;20026;-80
2024/01/05 04:23:05;;;;;;;8.00;1.60;;;;;;;;;;4993249;28;20543;-81
2024/01/05 04:25:32;;;;;;;6.57;1.45;;;;;;;;;;4988025;28;20026;-80
2024/01/05 04:27:59;;;;;;;7.38;1.40;;;;;;;;;;4986010;28;20041;-80
2024/01/05 04:30:26;;;;;;;6.80;1.67;;;;;;;;;;4987454;28;20030;-80
2024/01/05 04:32:53;;;;;;;8.50;1.50;;;;;;;;;;4987876;28;20034;-80
2024/01/05 04:35:18;;;;;;;6.25;1.30;;;;;;;;;;4991290;28;20030;-80
2024/01/05 04:37:43;;;;;;;5.63;1.60;;;;;;;;;;4989931;28;20078;-80
2024/01/05 04:40:10;;;;;;;4.75;1.40;;;;;;;;;;4984305;28;20030;-80
2024/01/05 04:42:36;;;;;;;8.77;1.63;;;;;;;;;;4990553;28;20099;-80
2024/01/05 04:45:02;;;;;;;6.43;1.50;;;;;;;;;;4987986;28;20030;-80
2024/01/05 04:47:28;;;;;;;6.38;1.45;;;;;;;;;;4984654;28;20041;-80
2024/01/05 04:49:53;;;;;;;4.38;1.30;;;;;;;;;;4990751;28;20128;-80
2024/01/05 04:52:19;;;;;;;7.18;1.70;;;;;;;;;;4995988;28;20050;-80
2024/01/05 04:54:46;;;;;;;6.43;1.65;;;;;;;;;;4999588;28;20029;-80
2024/01/05 04:57:13;;;;;;;6.13;1.40;;;;;;;;;;4984485;28;20038;-80
2024/01/05 04:59:38;;;;;;;8.23;1.67;;;;;;;;;;4994648;28;20105;-80
2024/01/05 05:02:04;;;;;;;5.22;1.50;;;;;;;;;;4990842;28;20117;-80
2024/01/05 05:04:30;;;;;;;6.00;1.33;;;;;;;;;;4994639;28;20125;-80
2024/01/05 05:06:55;;;;;;;5.78;1.10;;;;;;;;;;4996590;28;20463;-80
2024/01/05 05:09:21;;;;;;;7.80;1.35;;;;;;;;;;4992523;28;20445;-80
2024/01/05 05:11:46;;;;;;;8.02;1.80;;;;;;;;;;4991945;28;20022;-80
2024/01/05 05:14:12;;;;;;;7.63;1.50;;;;;;;;;;4996807;28;20022;-80
2024/01/05 05:16:39;;;;;;;6.57;1.25;;;;;;;;;;4996267;28;20025;-80
2024/01/05 05:19:07;;;;;;;4.88;1.20;;;;;;;;;;4994855;28;20038;-79
2024/01/05 05:21:33;;;;;;;4.30;1.10;;;;;;;;;;4993904;28;20030;-80
2024/01/05 05:23:58;;;;;;;5.55;1.27;;;;;;;;;;4994778;28;20048;-80
2024/01/05 05:26:24;;;;;;;6.10;1.52;;;;;;;;;;4992857;28;20600;-80
2024/01/05 05:28:49;;;;;;;4.28;1.63;;;;;;;;;;4994643;28;20022;-81
2024/01/05 05:31:15;;;;;;;4.85;1.27;;;;;;;;;;4991100;28;20449;-80
2024/01/05 05:33:41;;;;;;;7.13;1.40;;;;;;;;;;4992937;28;20089;-80
2024/01/05 05:36:08;;;;;;;6.57;1.45;;;;;;;;;;4995379;28;20095;-80
2024/01/05 05:38:33;;;;;;;6.65;1.40;;;;;;;;;;5004700;28;20237;-80
2024/01/05 05:41:02;;;;;;;3.97;1.27;;;;;;;;;;4996310;28;20135;-81
2024/01/05 05:43:31;;;;;;;5.82;1.35;;;;;;;;;;4992365;28;20030;-80
2024/01/05 05:45:56;;;;;;;6.53;1.25;;;;;;;;;;4990763;28;20101;-80
2024/01/05 05:48:22;;;;;;;7.57;1.15;;;;;;;;;;4993334;28;20416;-80
2024/01/05 05:50:48;;;;;;;6.75;1.30;;;;;;;;;;4991321;28;20034;-80
2024/01/05 05:53:17;;;;;;;9.27;1.70;;;;;;;;;;4993443;28;20022;-80
2024/01/05 05:55:43;;;;;;;5.65;1.10;;;;;;;;;;4994697;28;20049;-80
2024/01/05 05:58:09;;;;;;;8.15;1.40;;;;;;;;;;4989222;28;20034;-80
2024/01/05 06:00:37;;;;;;;6.18;1.42;;;;;;;;;;4987069;28;20037;-80
2024/01/05 06:03:06;;;;;;;3.92;1.15;;;;;;;;;;4992972;28;20026;-80
2024/01/05 06:05:31;;;;;;;7.38;1.55;;;;;;;;;;4991086;28;20037;-81
2024/01/05 06:07:57;;;;;;;5.93;1.58;;;;;;;;;;4991093;28;20031;-81
2024/01/05 06:10:22;;;;;;;3.97;1.08;;;;;;;;;;4996355;28;20025;-80
2024/01/05 06:12:48;;;;;;;4.13;1.25;;;;;;;;;;4990952;28;20121;-80
2024/01/05 06:15:13;;;;;;;8.90;1.40;;;;;;;;;;4990365;28;20030;-80
2024/01/05 06:17:40;;;;;;;7.15;1.20;;;;;;;;;;4989284;28;20076;-80
2024/01/05 06:20:08;;;;;;;5.78;1.00;;;;;;;;;;4992015;28;20054;-80
2024/01/05 06:22:34;;;;;;;3.58;1.00;;;;;;;;;;4992329;28;20026;-80
2024/01/05 06:25:01;;;;;;;9.77;1.48;;;;;;;;;;4992250;28;20026;-80
2024/01/05 06:27:27;;;;;;;2.42;0.75;;;;;;;;;;4992060;28;20112;-80
2024/01/05 06:29:53;;;;;;;4.10;1.02;;;;;;;;;;4994139;28;20433;-80
2024/01/05 06:32:22;;;;;;;4.32;1.42;;;;;;;;;;4986416;28;20029;-80
2024/01/05 06:34:47;;;;;;;3.38;0.90;;;;;;;;;;4987956;28;20037;-80
2024/01/05 06:37:13;;;;;;;3.85;0.90;;;;;;;;;;4992500;28;20022;-80
2024/01/05 06:39:38;;;;;;;3.10;0.60;;;;;;;;;;4993523;28;20062;-81
2024/01/05 06:42:06;;;;;;;2.05;0.70;;;;;;;;;;4983040;28;20121;-81
2024/01/05 06:44:31;;;;;;;2.58;0.60;;;;;;;;;;4987772;28;20050;-81
2024/01/05 06:46:57;;;;;;;3.40;0.70;;;;;;;;;;4989416;28;20139;-81
2024/01/05 06:49:23;;;;;;;2.92;0.50;;;;;;;;;;4987524;28;20026;-81
2024/01/05 06:51:49;;;;;;;1.35;0.50;;;;;;;;;;4986668;28;20030;-81
2024/01/05 06:54:14;;;;;;;1.83;0.40;;;;;;;;;;4991806;28;20030;-81
2024/01/05 06:56:42;;;;;;;0.93;0.40;;;;;;;;;;4988390;28;20073;-81
2024/01/05 06:59:08;;;;;;;1.48;0.40;;;;;;;;;;4991379;28;20026;-81
2024/01/05 07:01:34;;;;;;;0.88;0.40;;;;;;;;;;4987787;28;20031;-81
2024/01/05 07:04:00;;;;;;;2.70;0.50;;;;;;;;;;4992014;28;20027;-81
2024/01/05 07:06:25;;;;;;;1.90;0.40;;;;;;;;;;4988038;28;20503;-81
2024/01/05 07:08:51;;;;;;;1.00;0.30;;;;;;;;;;4991168;28;20121;-81
2024/01/05 07:11:23;;;;;;;0.30;0.28;;;;;;;;;;4993540;28;20018;-81
2024/01/05 07:13:49;;;;;;;0.82;0.30;;;;;;;;;;4990773;28;20388;-81
2024/01/05 07:16:22;;;;;;;2.13;0.40;;;;;;;;;;4986662;28;20034;-82
2024/01/05 07:18:48;;;;;;;1.20;0.38;;;;;;;;;;4986689;28;20076;-81
2024/01/05 07:21:15;;;;;;;1.73;0.40;;;;;;;;;;4987033;28;20444;-82
2024/01/05 07:23:40;;;;;;;1.02;0.30;;;;;;;;;;4986943;28;20022;-81
2024/01/05 07:26:06;;;;;;;4.30;0.47;;;;;;;;;;4985846;28;20085;-81
2024/01/05 07:28:31;;;;;;;2.50;0.30;;;;;;;;;;4986900;28;20389;-81
2024/01/05 07:31:04;;;;;;;1.63;0.35;;;;;;;;;;4987483;28;20068;-80
2024/01/05 07:33:32;;;;;;;0.98;0.40;;;;;;;;;;4988738;28;20113;-81
2024/01/05 07:35:57;;;;;;;0.70;0.38;;;;;;;;;;4990618;28;20500;-81
2024/01/05 07:38:26;;;;;;;0.55;0.35;;;;;;;;;;4989787;28;20033;-81
2024/01/05 07:40:53;;;;;;;0.57;0.40;;;;;;;;;;4989069;28;20025;-81
2024/01/05 07:43:21;;;;;;;0.47;0.32;;;;;;;;;;4989999;28;20117;-81
2024/01/05 07:45:46;;;;;;;0.38;0.30;;;;;;;;;;5008264;28;20373;-81
2024/01/05 07:48:12;;;;;;;1.02;0.30;;;;;;;;;;4990960;28;20053;-80
2024/01/05 07:50:37;;;;;;;0.80;0.40;;;;;;;;;;4986879;28;20038;-80
2024/01/05 07:53:03;;;;;;;0.82;0.40;;;;;;;;;;4988879;28;20080;-80
2024/01/05 07:55:28;;;;;;;1.73;0.40;;;;;;;;;;4987913;28;20042;-80
2024/01/05 07:57:54;;;;;;;1.08;0.40;;;;;;;;;;4983653;28;20713;-80
2024/01/05 08:00:19;;;;;;;0.95;0.40;;;;;;;;;;4989528;28;20033;-80
2024/01/05 08:02:46;;;;;;;0.75;0.40;;;;;;;;;;4986819;28;20034;-80
2024/01/05 08:05:12;;;;;;;1.85;0.40;;;;;;;;;;4990548;28;20030;-80
2024/01/05 08:07:37;;;;;;;2.55;0.50;;;;;;;;;;4987968;28;20393;-80
2024/01/05 08:10:04;;;;;;;1.95;0.73;;;;;;;;;;4986622;28;20018;-80
2024/01/05 08:12:30;;;;;;;0.55;0.30;;;;;;;;;;4986445;28;20030;-80
2024/01/05 08:14:55;;;;;;;0.75;0.35;;;;;;;;;;4992349;28;20653;-80
2024/01/05 08:17:21;;;;;;;0.30;0.30;;;;;;;;;;4992333;28;20030;-80
2024/01/05 08:19:47;;;;;;;0.95;0.30;;;;;;;;;;4987181;28;20022;-80
2024/01/05 08:22:15;;;;;;;0.63;0.28;;;;;;;;;;4991305;28;20084;-80
2024/01/05 08:24:42;;;;;;;1.20;0.43;;;;;;;;;;4992610;28;20018;-80
2024/01/05 08:27:08;;;;;;;0.98;0.40;;;;;;;;;;5001012;28;20382;-80
2024/01/05 08:29:34;;;;;;;0.63;0.30;;;;;;;;;;4984762;28;20026;-80
2024/01/05 08:32:02;;;;;;;0.47;0.40;;;;;;;;;;4981310;28;20496;-80
2024/01/05 08:34:28;;;;;;;1.17;0.50;;;;;;;;;;4983427;28;20105;-80
2024/01/05 08:36:53;;;;;;;1.10;0.40;;;;;;;;;;4986383;28;20120;-80
2024/01/05 08:39:19;;;;;;;0.95;0.40;;;;;;;;;;4981784;28;20027;-81
2024/01/05 08:41:46;;;;;;;2.28;0.50;;;;;;;;;;4985386;28;20050;-80
2024/01/05 08:44:14;;;;;;;1.05;0.47;;;;;;;;;;4982721;28;20804;-80
2024/01/05 08:46:41;;;;;;;0.95;0.40;;;;;;;;;;5001145;28;20049;-80
2024/01/05 08:49:10;;;;;;;1.92;0.50;;;;;;;;;;4981994;28;20030;-81
2024/01/05 08:51:43;;;;;;;0.80;0.40;;;;;;;;;;4984548;28;20034;-80
2024/01/05 08:54:09;;;;;;;0.30;0.30;;;;;;;;;;4983938;28;20070;-80
2024/01/05 08:56:36;;;;;;;1.48;0.50;;;;;;;;;;4982071;28;20030;-80
2024/01/05 08:59:02;;;;;;;0.98;0.43;;;;;;;;;;4988215;28;20034;-80
2024/01/05 09:01:28;;;;;;;0.63;0.40;;;;;;;;;;4988556;28;20026;-80
2024/01/05 09:03:54;;;;;;;2.75;0.50;;;;;;;;;;4992493;28;20057;-80
2024/01/05 09:06:20;;;;;;;1.08;0.60;;;;;;;;;;4984987;28;20065;-80
2024/01/05 09:08:46;;;;;;;2.20;0.60;;;;;;;;;;4988382;28;20302;-80
2024/01/05 09:11:11;;;;;;;1.35;0.50;;;;;;;;;;4984270;28;20034;-80
2024/01/05 09:13:38;;;;;;;2.15;0.63;;;;;;;;;;4986468;28;20049;-80
2024/01/05 09:16:04;;;;;;;1.13;0.40;;;;;;;;;;4988600;28;20505;-80
2024/01/05 09:18:33;;;;;;;0.63;0.40;;;;;;;;;;4990641;28;20038;-80
2024/01/05 09:21:00;;;;;;;0.85;0.40;;;;;;;;;;4985435;28;20113;-80
2024/01/05 09:23:26;;;;;;;1.50;0.57;;;;;;;;;;4985368;28;20057;-80
2024/01/05 09:25:55;;;;;;;0.73;0.40;;;;;;;;;;4983748;28;20034;-80
2024/01/05 09:28:22;;;;;;;0.60;0.50;;;;;;;;;;4986506;28;20026;-82
2024/01/05 09:30:48;;;;;;;0.77;0.50;;;;;;;;;;4986116;28;20481;-80
2024/01/05 09:33:15;;;;;;;0.75;0.50;;;;;;;;;;4980123;28;20504;-80
2024/01/05 09:35:44;;;;;;;0.52;0.30;;;;;;;;;;4980202;28;20049;-81
2024/01/05 09:38:10;;;;;;;0.38;0.38;;;;;;;;;;4981351;28;20508;-80
2024/01/05 09:40:35;;;;;;;0.90;0.40;;;;;;;;;;4979908;28;20052;-81
2024/01/05 09:43:02;;;;;;;1.98;0.50;;;;;;;;;;4980477;28;21663;-81
2024/01/05 09:45:30;;;;;;;1.42;0.55;;;;;;;;;;4974362;28;20034;-80
2024/01/05 09:48:00;;;;;;;1.52;0.70;;;;;;;;;;4977489;28;20543;-81
2024/01/05 09:50:27;;;;;;;0.88;0.60;;;;;;;;;;4977505;28;20033;-81
2024/01/05 09:52:54;;;;;;;1.27;0.80;;;;;;;;;;4978832;28;20061;-82
2024/01/05 09:55:19;;;;;;;0.95;0.70;;;;;;;;;;4981275;28;20038;-81
2024/01/05 09:57:49;;;;;;;1.15;0.80;;;;;;;;;;4979914;28;20080;-81
2024/01/05 10:00:15;;;;;;;2.65;0.82;;;;;;;;;;4980365;28;20034;-81
2024/01/05 10:02:47;;;;;;;1.20;0.80;;;;;;;;;;4980116;28;20026;-81
2024/01/05 10:05:15;;;;;;;1.97;1.10;;;;;;;;;;4984583;28;20120;-81
2024/01/05 10:07:43;;;;;;;2.03;1.10;;;;;;;;;;4984252;28;20118;-80
2024/01/05 10:10:12;;;;;;;2.35;1.20;;;;;;;;;;4987396;28;20097;-82
2024/01/05 10:12:40;;;;;;;2.10;1.30;;;;;;;;;;4986207;28;20066;-82
2024/01/05 10:15:06;;;;;;;1.83;1.13;;;;;;;;;;4993555;28;20076;-82
2024/01/05 10:17:33;;;;;;;3.20;1.20;;;;;;;;;;4997853;28;20034;-81
2024/01/05 10:20:17;;;;;;;2.53;1.42;;;;;;;;;;5001506;28;20036;-82
2024/01/05 10:22:43;;;;;;;3.28;1.20;;;;;;;;;;4994138;28;20032;-82
2024/01/05 10:25:17;;;;;;;1.60;1.10;;;;;;;;;;4968409;28;20031;-81
2024/01/05 10:27:46;;;;;;;2.65;1.25;;;;;;;;;;4988335;28;20038;-81
2024/01/05 10:30:29;;;;;;;1.95;1.20;;;;;;;;;;4965716;28;20022;-82
2024/01/05 10:33:09;;;;;;;2.10;1.03;;;;;;;;;;4975544;28;20030;-81
2024/01/05 10:35:35;;;;;;;2.03;1.20;;;;;;;;;;4976966;28;20053;-82
2024/01/05 10:38:11;;;;;;;3.25;1.40;;;;;;;;;;4984061;28;20035;-82
2024/01/05 10:40:37;;;;;;;1.80;1.20;;;;;;;;;;4978160;28;20476;-82
2024/01/05 10:43:11;;;;;;;3.20;1.30;;;;;;;;;;4976306;28;20023;-82
2024/01/05 10:45:42;;;;;;;3.20;1.40;;;;;;;;;;4974078;28;20118;-82
2024/01/05 10:48:10;;;;;;;2.47;1.30;;;;;;;;;;4978593;28;20034;-82
2024/01/05 10:50:37;;;;;;;1.83;1.20;;;;;;;;;;4978372;28;20023;-81
2024/01/05 10:53:04;;;;;;;3.03;1.20;;;;;;;;;;4976840;28;20038;-81
2024/01/05 10:55:31;;;;;;;2.60;1.42;;;;;;;;;;4975970;28;20081;-82
2024/01/05 10:57:57;;;;;;;2.45;1.40;;;;;;;;;;4984542;28;20476;-82
2024/01/05 11:00:24;;;;;;;2.28;1.30;;;;;;;;;;4974183;28;20133;-82
2024/01/05 11:03:20;;;;;;;3.17;1.65;;;;;;;;;;4981125;28;20054;-82
2024/01/05 11:05:46;;;;;;;2.50;1.25;;;;;;;;;;4986451;28;20206;-82
2024/01/05 11:08:14;;;;;;;2.20;1.30;;;;;;;;;;4982619;28;20293;-81
2024/01/05 11:11:04;;;;;;;2.08;1.30;;;;;;;;;;4980102;28;20026;-82
2024/01/05 11:13:49;;;;;;;3.15;1.30;;;;;;;;;;4975760;28;20053;-82
2024/01/05 11:16:44;;;;;;;1.58;1.08;;;;;;;;;;4957140;28;20041;-81
2024/01/05 11:19:23;;;;;;;2.47;1.20;;;;;;;;;;4979716;28;20022;-82
2024/01/05 11:21:57;;;;;;;2.78;1.40;;;;;;;;;;4971561;28;20347;-82
2024/01/05 11:24:26;;;;;;;3.03;1.35;;;;;;;;;;4969812;28;20125;-81
2024/01/05 11:26:54;;;;;;;2.05;1.20;;;;;;;;;;4973380;28;20749;-82
2024/01/05 11:29:45;;;;;;;3.67;1.40;;;;;;;;;;4971282;28;20030;-82
2024/01/05 11:32:39;;;;;;;1.80;1.30;;;;;;;;;;4977750;28;20259;-82
2024/01/05 11:35:16;;;;;;;2.05;1.35;;;;;;;;;;4963551;28;20112;-82
2024/01/05 11:37:46;;;;;;;1.52;1.30;;;;;;;;;;4974237;28;20201;-82
2024/01/05 11:40:29;;;;;;;2.75;1.50;;;;;;;;;;4987726;28;20122;-82
2024/01/05 11:42:59;;;;;;;3.28;1.33;;;;;;;;;;4975370;28;20060;-82
2024/01/05 11:45:43;;;;;;;2.90;1.60;;;;;;;;;;4980719;28;20026;-82
2024/01/05 11:48:09;;;;;;;2.30;1.25;;;;;;;;;;4978809;28;20061;-82
2024/01/05 11:50:38;;;;;;;1.95;1.35;;;;;;;;;;4976654;28;20627;-82
2024/01/05 11:53:19;;;;;;;2.63;1.20;;;;;;;;;;4975259;28;20334;-82
2024/01/05 11:55:49;;;;;;;2.03;1.30;;;;;;;;;;4976839;28;20536;-81
2024/01/05 11:58:28;;;;;;;2.13;1.38;;;;;;;;;;4980252;28;20030;-81
2024/01/05 12:00:56;;;;;;;2.75;1.40;;;;;;;;;;4981797;28;20039;-82
2024/01/05 12:03:24;;;;;;;1.77;1.27;;;;;;;;;;4980069;28;20061;-82
2024/01/05 12:06:00;;;;;;;2.42;1.40;;;;;;;;;;4982022;28;20034;-82
2024/01/05 12:08:28;;;;;;;3.45;1.30;;;;;;;;;;4975481;28;20391;-82
2024/01/05 12:10:57;;;;;;;2.55;1.42;;;;;;;;;;4981495;28;20041;-82
2024/01/05 12:13:26;;;;;;;2.35;1.50;;;;;;;;;;4982275;28;20022;-82
2024/01/05 12:15:55;;;;;;;2.05;1.42;;;;;;;;;;4974212;28;20022;-82
2024/01/05 12:18:27;;;;;;;2.72;1.65;;;;;;;;;;4978096;28;20038;-82
2024/01/05 12:20:54;;;;;;;6.93;1.80;;;;;;;;;;4971861;28;20030;-82
2024/01/05 12:23:20;;;;;;;3.72;1.50;;;;;;;;;;4977575;28;20579;-82
2024/01/05 12:26:09;;;;;;;3.83;1.70;;;;;;;;;;4973078;28;20038;-82
2024/01/05 12:28:41;;;;;;;2.60;1.58;;;;;;;;;;4972824;28;20022;-82
2024/01/05 12:31:10;;;;;;;2.38;1.50;;;;;;;;;;4975596;28;20476;-82
2024/01/05 12:33:37;;;;;;;2.80;1.60;;;;;;;;;;4977963;28;20030;-83
2024/01/05 12:36:04;;;;;;;3.45;1.63;;;;;;;;;;4968190;28;20064;-82
2024/01/05 12:38:30;;;;;;;3.15;1.80;;;;;;;;;;4966570;28;20033;-83
2024/01/05 12:41:13;;;;;;;2.47;1.40;;;;;;;;;;4970654;28;20158;-82
2024/01/05 12:43:46;;;;;;;2.83;1.80;;;;;;;;;;4968793;28;20026;-82
2024/01/05 12:46:13;;;;;;;5.22;1.70;;;;;;;;;;4973644;28;20036;-82
2024/01/05 12:48:40;;;;;;;2.78;1.70;;;;;;;;;;4974494;28;20037;-82
2024/01/05 12:51:13;;;;;;;4.65;2.10;;;;;;;;;;4972074;28;20026;-82
2024/01/05 12:53:38;;;;;;;2.72;1.90;;;;;;;;;;4976817;28;20041;-82
2024/01/05 12:56:11;;;;;;;4.00;1.88;;;;;;;;;;4971713;28;20018;-82
2024/01/05 12:58:40;;;;;;;3.80;2.10;;;;;;;;;;4984833;28;20053;-82
2024/01/05 13:01:26;;;;;;;4.00;2.13;;;;;;;;;;4973187;28;20030;-82
2024/01/05 13:03:58;;;;;;;3.40;2.40;;;;;;;;;;4988247;28;20031;-82
2024/01/05 13:06:26;;;;;;;3.78;2.53;;;;;;;;;;4974079;28;20029;-82
2024/01/05 13:08:52;;;;;;;5.13;2.40;;;;;;;;;;4969873;28;20034;-82
2024/01/05 13:11:19;;;;;;;4.80;2.45;;;;;;;;;;4988391;28;20030;-82
2024/01/05 13:13:48;;;;;;;3.58;2.40;;;;;;;;;;4973883;28;20069;-82
2024/01/05 13:16:14;;;;;;;4.78;3.00;;;;;;;;;;4972173;28;20041;-82
2024/01/05 13:18:40;;;;;;;5.03;2.78;;;;;;;;;;4978854;28;20034;-82
2024/01/05 13:21:05;;;;;;;4.07;2.88;;;;;;;;;;4979079;28;20030;-81
2024/01/05 13:23:32;;;;;;;6.60;3.05;;;;;;;;;;4971311;28;20032;-82
2024/01/05 13:25:57;;;;;;;3.88;2.97;;;;;;;;;;4975084;28;20046;-82
2024/01/05 13:28:24;;;;;;;4.40;3.13;;;;;;;;;;4982548;28;20026;-82
2024/01/05 13:30:51;;;;;;;4.65;3.20;;;;;;;;;;4977387;28;20027;-82
2024/01/05 13:33:18;;;;;;;5.40;3.50;;;;;;;;;;4981404;28;20682;-82
2024/01/05 13:35:44;;;;;;;5.35;3.60;;;;;;;;;;4974715;28;20547;-81
2024/01/05 13:38:09;;;;;;;4.93;3.55;;;;;;;;;;4978582;28;20041;-82
2024/01/05 13:40:40;;;;;;;4.15;3.30;;;;;;;;;;4979219;28;20444;-82
2024/01/05 13:43:07;;;;;;;6.40;3.88;;;;;;;;;;4979474;28;20056;-82
2024/01/05 13:45:34;;;;;;;5.25;4.10;;;;;;;;;;4973077;28;20028;-82
2024/01/05 13:47:59;;;;;;;4.72;3.60;;;;;;;;;;4981662;28;20033;-82
2024/01/05 13:50:25;;;;;;;5.13;3.88;;;;;;;;;;4990048;28;20455;-82
2024/01/05 13:52:50;;;;;;;5.65;4.40;;;;;;;;;;4992361;28;20046;-82
2024/01/05 13:55:16;;;;;;;6.68;4.70;;;;;;;;;;4978321;28;20041;-81
2024/01/05 13:57:41;;;;;;;5.72;4.40;;;;;;;;;;4978951;28;20018;-82
2024/01/05 14:00:08;;;;;;;5.03;4.20;;;;;;;;;;4977219;28;20108;-82
2024/01/05 14:02:34;;;;;;;6.50;4.30;;;;;;;;;;4972870;28;20034;-81
2024/01/05 14:05:00;;;;;;;5.95;4.40;;;;;;;;;;4973646;28;20749;-81
2024/01/05 14:07:26;;;;;;;5.80;4.43;;;;;;;;;;4976973;28;20118;-81
2024/01/05 14:09:52;;;;;;;6.78;4.88;;;;;;;;;;4970796;28;20039;-82
2024/01/05 14:12:19;;;;;;;7.75;5.25;;;;;;;;;;4972505;28;20057;-82
2024/01/05 14:14:44;;;;;;;6.40;5.28;;;;;;;;;;4979669;28;20038;-82
2024/01/05 14:17:10;;;;;;;6.20;4.97;;;;;;;;;;4983348;28;20023;-82
2024/01/05 14:19:40;;;;;;;6.60;5.05;;;;;;;;;;4992889;28;20486;-81
2024/01/05 14:22:05;;;;;;;6.60;5.60;;;;;;;;;;4974511;28;20033;-82
2024/01/05 14:24:31;;;;;;;6.53;5.20;;;;;;;;;;4989951;28;20061;-82
2024/01/05 14:26:56;;;;;;;6.57;5.50;;;;;;;;;;4978493;28;20037;-82
2024/01/05 14:29:22;;;;;;;8.02;5.80;;;;;;;;;;4977842;28;20246;-82
2024/01/05 14:31:51;;;;;;;6.47;5.75;;;;;;;;;;4973722;28;21021;-81
2024/01/05 14:34:17;;;;;;;7.70;5.40;;;;;;;;;;4989070;28;20033;-82
2024/01/05 14:36:43;;;;;;;8.48;5.40;;;;;;;;;;4977148;28;20022;-82
2024/01/05 14:39:09;;;;;;;7.35;5.70;;;;;;;;;;4972805;28;20038;-82
2024/01/05 14:41:36;;;;;;;7.43;6.03;;;;;;;;;;4971771;28;20024;-81
2024/01/05 14:44:01;;;;;;;7.95;6.03;;;;;;;;;;4982938;28;20041;-82
2024/01/05 14:46:29;;;;;;;8.98;5.90;;;;;;;;;;4981007;28;20653;-82